createdAt,value
2023-04-12T00:02:01.339Z,100105.92
2023-04-12T00:04:29.565Z,100104.33
2023-04-12T00:06:58.266Z,100097.23
2023-04-12T00:09:30.681Z,100098.20
2023-04-12T00:11:59.949Z,100093.34
2023-04-12T00:14:28.813Z,100089.11
2023-04-12T00:16:56.820Z,100088.83
2023-04-12T00:19:26.085Z,100086.54
2023-04-12T00:21:54.217Z,100087.30
2023-04-12T00:24:22.066Z,100081.80
2023-04-12T00:26:49.930Z,100081.40
2023-04-12T00:29:18.210Z,100087.89
2023-04-12T00:31:46.065Z,100088.07
2023-04-12T00:34:14.009Z,100082.17
2023-04-12T00:36:42.034Z,100082.16
2023-04-12T00:39:10.101Z,100080.42
2023-04-12T00:41:38.213Z,100081.41
2023-04-12T00:44:07.949Z,100082.23
2023-04-12T00:46:38.417Z,100085.83
2023-04-12T00:49:06.568Z,100084.16
2023-04-12T00:51:34.702Z,100084.95
2023-04-12T00:54:04.045Z,100087.57
2023-04-12T00:56:33.242Z,100087.28
2023-04-12T00:59:02.202Z,100081.02
2023-04-12T01:01:32.152Z,100084.52
2023-04-12T01:04:01.599Z,100084.16
2023-04-12T01:06:42.578Z,100083.55
2023-04-12T01:09:31.799Z,100079.45
2023-04-12T01:12:11.130Z,100081.77
2023-04-12T01:14:48.347Z,100083.44
2023-04-12T01:17:21.110Z,100081.20
2023-04-12T01:20:17.178Z,100082.14
2023-04-12T01:22:55.585Z,100076.02
2023-04-12T01:25:48.725Z,100076.44
2023-04-12T01:28:23.052Z,100076.77
2023-04-12T01:30:52.203Z,100076.44
2023-04-12T01:33:21.269Z,100079.48
2023-04-12T01:35:50.104Z,100084.70
2023-04-12T01:38:18.036Z,100081.55
2023-04-12T01:40:46.281Z,100082.38
2023-04-12T01:43:16.128Z,100083.42
2023-04-12T01:45:44.216Z,100081.04
2023-04-12T01:48:13.090Z,100080.60
2023-04-12T01:50:57.150Z,100080.56
2023-04-12T01:53:44.982Z,100077.91
2023-04-12T01:56:13.488Z,100071.79
2023-04-12T01:58:43.355Z,100071.32
2023-04-12T02:01:12.853Z,100063.64
2023-04-12T02:03:42.771Z,100060.75
2023-04-12T02:06:11.183Z,100060.71
2023-04-12T02:08:39.142Z,100066.46
2023-04-12T02:11:14.855Z,100061.25
2023-04-12T02:13:43.363Z,100061.39
2023-04-12T02:16:14.079Z,100062.73
2023-04-12T02:18:42.671Z,100061.85
2023-04-12T02:21:11.837Z,100056.31
2023-04-12T02:23:39.549Z,100056.73
2023-04-12T02:26:07.927Z,100057.33
2023-04-12T02:28:38.788Z,100054.91
2023-04-12T02:31:07.445Z,100045.69
2023-04-12T02:33:36.038Z,100045.63
2023-04-12T02:36:05.980Z,100047.29
2023-04-12T02:38:33.695Z,100045.16
2023-04-12T02:41:01.768Z,100034.95
2023-04-12T02:43:29.778Z,100034.55
2023-04-12T02:45:57.664Z,100033.17
2023-04-12T02:48:25.754Z,100032.63
2023-04-12T02:50:53.901Z,100023.94
2023-04-12T02:53:21.895Z,100025.67
2023-04-12T02:55:49.778Z,100020.10
2023-04-12T02:58:19.104Z,100017.23
2023-04-12T03:00:48.067Z,100014.43
2023-04-12T03:03:18.319Z,100014.60
2023-04-12T03:05:47.412Z,100016.09
2023-04-12T03:08:15.494Z,100012.66
2023-04-12T03:10:43.327Z,100014.20
2023-04-12T03:13:11.685Z,100015.65
2023-04-12T03:15:40.860Z,100016.30
2023-04-12T03:18:08.830Z,100014.08
2023-04-12T03:20:39.209Z,100022.04
2023-04-12T03:23:07.263Z,100023.09
2023-04-12T03:25:35.104Z,100020.70
2023-04-12T03:28:03.302Z,100022.77
2023-04-12T03:30:31.961Z,100023.91
2023-04-12T03:33:00.089Z,100022.58
2023-04-12T03:35:28.276Z,100023.02
2023-04-12T03:37:58.806Z,100026.55
2023-04-12T03:40:26.622Z,100026.63
2023-04-12T03:42:54.574Z,100026.47
2023-04-12T03:45:22.342Z,100029.28
2023-04-12T03:47:50.182Z,100026.45
2023-04-12T03:50:26.480Z,100028.08
2023-04-12T03:52:54.365Z,100030.27
2023-04-12T03:55:22.495Z,100026.98
2023-04-12T03:57:50.348Z,100028.10
2023-04-12T04:00:18.244Z,100025.85
2023-04-12T04:02:47.462Z,100029.00
2023-04-12T04:05:15.572Z,100033.34
2023-04-12T04:07:43.585Z,100033.38
2023-04-12T04:10:11.748Z,100035.00
2023-04-12T04:12:39.630Z,100032.56
2023-04-12T04:15:07.938Z,100029.33
2023-04-12T04:17:36.163Z,100027.83
2023-04-12T04:20:05.811Z,100021.38
2023-04-12T04:22:33.621Z,100017.54
2023-04-12T04:25:02.503Z,100019.67
2023-04-12T04:27:30.743Z,100018.11
2023-04-12T04:29:59.754Z,100016.13
2023-04-12T04:32:27.623Z,100019.84
2023-04-12T04:35:00.157Z,100024.55
2023-04-12T04:37:30.676Z,100027.36
2023-04-12T04:39:59.094Z,100031.43
2023-04-12T04:42:26.864Z,100031.23
2023-04-12T04:45:03.134Z,100027.89
2023-04-12T04:47:31.080Z,100028.64
2023-04-12T04:50:00.064Z,100027.41
2023-04-12T04:52:27.964Z,100028.52
2023-04-12T04:54:57.962Z,100027.11
2023-04-12T04:57:26.854Z,100024.08
2023-04-12T04:59:57.410Z,100022.41
2023-04-12T05:02:26.377Z,100023.10
2023-04-12T05:04:56.681Z,100022.66
2023-04-12T05:07:26.092Z,100021.79
2023-04-12T05:09:53.916Z,100017.30
2023-04-12T05:12:21.910Z,100017.95
2023-04-12T05:14:51.651Z,100014.52
2023-04-12T05:17:20.204Z,100014.56
2023-04-12T05:19:48.709Z,100011.58
2023-04-12T05:22:20.607Z,100001.94
2023-04-12T05:24:49.403Z,99994.80
2023-04-12T05:27:17.741Z,99993.00
2023-04-12T05:29:45.998Z,99995.04
2023-04-12T05:32:13.874Z,99994.15
2023-04-12T05:34:42.333Z,99996.48
2023-04-12T05:37:10.142Z,99996.14
2023-04-12T05:39:39.293Z,99989.08
2023-04-12T05:42:07.329Z,99990.45
2023-04-12T05:44:37.277Z,99989.83
2023-04-12T05:47:05.457Z,99988.84
2023-04-12T05:49:33.661Z,99990.22
2023-04-12T05:52:02.598Z,99993.20
2023-04-12T05:54:30.600Z,99990.42
2023-04-12T05:56:58.721Z,99992.34
2023-04-12T05:59:26.552Z,99991.92
2023-04-12T06:01:55.168Z,99992.23
2023-04-12T06:04:26.342Z,99993.95
2023-04-12T06:06:57.926Z,99995.30
2023-04-12T06:09:26.438Z,99995.52
2023-04-12T06:11:54.181Z,99992.23
2023-04-12T06:14:22.086Z,99993.80
2023-04-12T06:16:51.682Z,99994.19
2023-04-12T06:19:19.404Z,99991.23
2023-04-12T06:21:47.561Z,99988.84
2023-04-12T06:24:16.431Z,99989.99
2023-04-12T06:26:47.041Z,99988.59
2023-04-12T06:29:15.004Z,99990.10
2023-04-12T06:31:43.285Z,99988.00
2023-04-12T06:34:11.129Z,99983.65
2023-04-12T06:36:41.695Z,99986.36
2023-04-12T06:39:09.734Z,99985.91
2023-04-12T06:41:37.583Z,99984.25
2023-04-12T06:44:06.390Z,99983.41
2023-04-12T06:46:34.332Z,99982.16
2023-04-12T06:49:02.329Z,99979.88
2023-04-12T06:51:31.116Z,99978.52
2023-04-12T06:53:58.924Z,99978.82
2023-04-12T06:56:26.835Z,99976.02
2023-04-12T06:58:54.750Z,99971.05
2023-04-12T07:01:22.684Z,99973.35
2023-04-12T07:03:50.767Z,99971.73
2023-04-12T07:06:25.180Z,99970.09
2023-04-12T07:08:54.518Z,99971.70
2023-04-12T07:11:23.386Z,99966.66
2023-04-12T07:13:51.718Z,99965.13
2023-04-12T07:16:20.498Z,99960.41
2023-04-12T07:18:48.613Z,99953.66
2023-04-12T07:21:17.831Z,99956.32
2023-04-12T07:23:46.988Z,99953.10
2023-04-12T07:26:14.824Z,99952.81
2023-04-12T07:28:42.667Z,99952.82
2023-04-12T07:31:11.279Z,99946.99
2023-04-12T07:33:40.741Z,99942.25
2023-04-12T07:36:11.761Z,99939.98
2023-04-12T07:38:39.943Z,99937.76
2023-04-12T07:41:08.240Z,99935.09
2023-04-12T07:43:36.123Z,99935.39
2023-04-12T07:46:08.916Z,99933.45
2023-04-12T07:48:37.374Z,99926.43
2023-04-12T07:51:05.943Z,99922.06
2023-04-12T07:53:33.848Z,99919.64
2023-04-12T07:56:05.250Z,99920.91
2023-04-12T07:58:34.068Z,99920.32
2023-04-12T08:01:01.908Z,99911.52
2023-04-12T08:03:29.893Z,99910.98
2023-04-12T08:05:57.721Z,99908.42
2023-04-12T08:08:26.121Z,99913.90
2023-04-12T08:10:54.272Z,99915.71
2023-04-12T08:13:22.327Z,99909.27
2023-04-12T08:15:50.318Z,99912.08
2023-04-12T08:18:18.694Z,99912.76
2023-04-12T08:20:49.402Z,99914.73
2023-04-12T08:23:17.378Z,99911.56
2023-04-12T08:25:45.508Z,99908.29
2023-04-12T08:28:13.584Z,99906.97
2023-04-12T08:30:43.797Z,99902.64
2023-04-12T08:33:11.572Z,99898.46
2023-04-12T08:35:40.142Z,99900.10
2023-04-12T08:38:08.221Z,99895.39
2023-04-12T08:40:36.063Z,99892.55
2023-04-12T08:43:07.740Z,99892.31
2023-04-12T08:45:36.596Z,99886.01
2023-04-12T08:48:07.476Z,99880.34
2023-04-12T08:50:35.501Z,99876.48
2023-04-12T08:53:03.785Z,99878.09
2023-04-12T08:55:31.928Z,99876.62
2023-04-12T08:58:00.294Z,99871.69
2023-04-12T09:00:28.447Z,99874.12
2023-04-12T09:02:56.447Z,99868.29
2023-04-12T09:05:30.135Z,99871.52
2023-04-12T09:07:58.348Z,99872.78
2023-04-12T09:10:39.779Z,99873.45
2023-04-12T09:13:07.716Z,99869.29
2023-04-12T09:15:36.499Z,99865.65
2023-04-12T09:18:09.589Z,99861.32
2023-04-12T09:20:40.457Z,99860.04
2023-04-12T09:23:26.759Z,99855.73
2023-04-12T09:25:55.406Z,99855.78
2023-04-12T09:28:28.349Z,99849.75
2023-04-12T09:31:00.762Z,99851.85
2023-04-12T09:33:34.706Z,99848.07
2023-04-12T09:36:04.744Z,99849.23
2023-04-12T09:38:33.657Z,99846.05
2023-04-12T09:41:26.942Z,99835.09
2023-04-12T09:43:55.494Z,99835.70
2023-04-12T09:46:23.478Z,99832.19
2023-04-12T09:48:53.443Z,99828.91
2023-04-12T09:51:39.622Z,99826.64
2023-04-12T09:54:09.135Z,99821.92
2023-04-12T09:56:40.011Z,99819.19
2023-04-12T09:59:08.731Z,99818.17
2023-04-12T10:01:39.922Z,99814.85
2023-04-12T10:04:09.420Z,99813.55
2023-04-12T10:06:39.006Z,99808.45
2023-04-12T10:09:08.828Z,99802.06
2023-04-12T10:11:42.162Z,99795.27
2023-04-12T10:14:10.202Z,99789.05
2023-04-12T10:16:41.775Z,99786.52
2023-04-12T10:19:13.803Z,99781.77
2023-04-12T10:21:42.836Z,99781.52
2023-04-12T10:24:11.042Z,99779.39
2023-04-12T10:26:43.464Z,99775.95
2023-04-12T10:29:31.263Z,99772.78
2023-04-12T10:32:19.968Z,99769.30
2023-04-12T10:34:54.059Z,99757.74
2023-04-12T10:37:23.048Z,99761.05
2023-04-12T10:39:55.139Z,99762.44
2023-04-12T10:42:24.155Z,99760.95
2023-04-12T10:44:58.751Z,99757.23
2023-04-12T10:47:51.024Z,99751.48
2023-04-12T10:50:25.227Z,99746.62
2023-04-12T10:53:13.351Z,99741.02
2023-04-12T10:55:45.696Z,99741.16
2023-04-12T10:58:49.348Z,99736.65
2023-04-12T11:01:18.943Z,99725.56
2023-04-12T11:04:06.037Z,99719.10
2023-04-12T11:07:07.544Z,99715.27
2023-04-12T11:09:43.498Z,99704.89
2023-04-12T11:12:13.718Z,99698.72
2023-04-12T11:14:52.659Z,99700.73
2023-04-12T11:17:21.967Z,99698.70
2023-04-12T11:19:54.250Z,99692.13
2023-04-12T11:22:24.309Z,99692.15
2023-04-12T11:24:54.465Z,99693.63
2023-04-12T11:27:29.190Z,99686.99
2023-04-12T11:30:03.705Z,99687.31
2023-04-12T11:32:31.760Z,99682.52
2023-04-12T11:34:59.975Z,99676.34
2023-04-12T11:37:28.990Z,99671.98
2023-04-12T11:40:04.418Z,99663.30
2023-04-12T11:42:32.872Z,99659.73
2023-04-12T11:45:06.065Z,99663.16
2023-04-12T11:47:35.390Z,99662.44
2023-04-12T11:50:04.023Z,99664.04
2023-04-12T11:52:33.494Z,99652.05
2023-04-12T11:55:06.737Z,99650.92
2023-04-12T11:57:35.468Z,99640.59
2023-04-12T12:00:06.892Z,99634.95
2023-04-12T12:02:41.110Z,99633.64
2023-04-12T12:05:14.874Z,99624.48
2023-04-12T12:07:43.719Z,99624.89
2023-04-12T12:10:13.299Z,99617.92
2023-04-12T12:12:45.910Z,99611.95
2023-04-12T12:15:15.803Z,99606.36
2023-04-12T12:17:43.963Z,99600.06
2023-04-12T12:20:21.893Z,99597.17
2023-04-12T12:22:50.463Z,99598.46
2023-04-12T12:25:19.244Z,99588.27
2023-04-12T12:27:51.425Z,99592.34
2023-04-12T12:30:20.842Z,99587.64
2023-04-12T12:32:50.959Z,99583.48
2023-04-12T12:35:19.760Z,99579.64
2023-04-12T12:37:52.629Z,99578.20
2023-04-12T12:40:29.575Z,99572.52
2023-04-12T12:42:57.909Z,99568.08
2023-04-12T12:45:28.115Z,99568.87
2023-04-12T12:48:04.008Z,99566.34
2023-04-12T12:50:33.947Z,99569.80
2023-04-12T12:53:02.787Z,99561.40
2023-04-12T12:55:31.792Z,99559.02
2023-04-12T13:00:31.832Z,99550.35
2023-04-12T13:02:59.911Z,99552.95
2023-04-12T13:05:28.293Z,99547.48
2023-04-12T13:07:56.245Z,99546.33
2023-04-12T13:10:24.343Z,99543.71
2023-04-12T13:12:52.554Z,99541.15
2023-04-12T13:15:23.846Z,99542.86
2023-04-12T13:17:53.076Z,99537.81
2023-04-12T13:20:22.426Z,99523.77
2023-04-12T13:22:52.335Z,99522.69
2023-04-12T13:25:21.222Z,99515.52
2023-04-12T13:27:49.559Z,99510.17
2023-04-12T13:30:20.562Z,99505.48
2023-04-12T13:32:48.712Z,99500.33
2023-04-12T13:35:16.593Z,99498.51
2023-04-12T13:37:44.475Z,99492.87
2023-04-12T13:40:12.409Z,99491.30
2023-04-12T13:42:40.479Z,99483.64
2023-04-12T13:45:11.369Z,99478.08
2023-04-12T13:47:39.511Z,99472.19
2023-04-12T13:50:08.089Z,99466.63
2023-04-12T13:52:35.815Z,99463.08
2023-04-12T13:55:08.462Z,99460.02
2023-04-12T13:57:36.607Z,99456.77
2023-04-12T14:00:05.141Z,99453.77
2023-04-12T14:02:33.056Z,99452.79
2023-04-12T14:05:01.197Z,99445.96
2023-04-12T14:07:29.588Z,99443.60
2023-04-12T14:09:57.983Z,99439.20
2023-04-12T14:12:25.778Z,99439.48
2023-04-12T14:14:53.667Z,99428.48
2023-04-12T14:17:21.958Z,99435.90
2023-04-12T14:19:51.300Z,99431.44
2023-04-12T14:22:19.024Z,99428.52
2023-04-12T14:24:47.091Z,99419.92
2023-04-12T14:27:17.868Z,99421.46
2023-04-12T14:29:46.659Z,99418.24
2023-04-12T14:32:14.712Z,99418.32
2023-04-12T14:34:43.586Z,99416.64
2023-04-12T14:37:11.864Z,99412.74
2023-04-12T14:39:39.681Z,99408.85
2023-04-12T14:42:07.799Z,99403.43
2023-04-12T14:44:35.818Z,99401.86
2023-04-12T14:47:03.830Z,99402.69
2023-04-12T14:49:33.432Z,99403.08
2023-04-12T14:52:02.142Z,99403.79
2023-04-12T14:54:30.403Z,99399.51
2023-04-12T14:56:59.929Z,99400.12
2023-04-12T14:59:27.847Z,99401.40
2023-04-12T15:01:55.959Z,99395.45
2023-04-12T15:04:24.032Z,99393.04
2023-04-12T15:06:52.038Z,99385.84
2023-04-12T15:09:21.406Z,99389.60
2023-04-12T15:11:50.619Z,99391.98
2023-04-12T15:14:20.601Z,99390.61
2023-04-12T15:16:51.588Z,99383.64
2023-04-12T15:19:23.136Z,99380.11
2023-04-12T15:21:52.464Z,99379.55
2023-04-12T15:24:22.290Z,99374.78
2023-04-12T15:26:52.835Z,99369.19
2023-04-12T15:29:22.657Z,99371.86
2023-04-12T15:31:51.010Z,99364.48
2023-04-12T15:34:19.626Z,99360.94
2023-04-12T15:36:47.728Z,99357.86
2023-04-12T15:39:15.492Z,99353.16
2023-04-12T15:41:43.858Z,99354.41
2023-04-12T15:44:13.566Z,99349.31
2023-04-12T15:46:42.031Z,99344.23
2023-04-12T15:49:10.853Z,99345.03
2023-04-12T15:51:39.178Z,99334.58
2023-04-12T15:54:07.243Z,99332.06
2023-04-12T15:56:35.725Z,99331.99
2023-04-12T15:59:04.187Z,99338.08
2023-04-12T16:01:32.133Z,99338.45
2023-04-12T16:04:00.251Z,99343.64
2023-04-12T16:06:30.796Z,99342.84
2023-04-12T16:08:58.814Z,99341.77
2023-04-12T16:11:27.807Z,99342.33
2023-04-12T16:13:56.501Z,99343.81
2023-04-12T16:16:24.520Z,99342.58
2023-04-12T16:18:53.581Z,99341.44
2023-04-12T16:21:23.467Z,99339.35
2023-04-12T16:23:51.448Z,99335.73
2023-04-12T16:26:22.183Z,99333.26
2023-04-12T16:28:54.713Z,99334.82
2023-04-12T16:31:25.432Z,99340.73
2023-04-12T16:33:54.085Z,99337.54
2023-04-12T16:36:27.234Z,99335.15
2023-04-12T16:38:56.261Z,99337.23
2023-04-12T16:41:24.220Z,99330.16
2023-04-12T16:43:54.037Z,99331.59
2023-04-12T16:46:22.526Z,99331.23
2023-04-12T16:48:50.487Z,99332.17
2023-04-12T16:51:18.346Z,99332.14
2023-04-12T16:53:47.003Z,99329.02
2023-04-12T16:56:14.924Z,99325.08
2023-04-12T16:58:42.720Z,99323.60
2023-04-12T17:01:10.905Z,99321.36
2023-04-12T17:03:38.949Z,99317.61
2023-04-12T17:06:07.614Z,99316.99
2023-04-12T17:08:35.890Z,99319.45
2023-04-12T17:11:03.765Z,99319.97
2023-04-12T17:13:31.724Z,99319.59
2023-04-12T17:15:59.573Z,99318.39
2023-04-12T17:18:27.507Z,99319.36
2023-04-12T17:20:56.138Z,99321.73
2023-04-12T17:23:24.396Z,99316.16
2023-04-12T17:25:52.425Z,99317.42
2023-04-12T17:28:20.320Z,99315.34
2023-04-12T17:30:48.610Z,99316.45
2023-04-12T17:33:18.439Z,99319.73
2023-04-12T17:35:46.793Z,99321.60
2023-04-12T17:38:14.576Z,99321.50
2023-04-12T17:40:42.542Z,99321.58
2023-04-12T17:43:10.462Z,99317.92
2023-04-12T17:45:38.733Z,99318.05
2023-04-12T17:48:08.954Z,99316.19
2023-04-12T17:50:36.780Z,99315.60
2023-04-12T17:53:04.648Z,99313.79
2023-04-12T17:55:32.792Z,99307.89
2023-04-12T17:58:00.718Z,99306.49
2023-04-12T18:00:28.565Z,99308.00
2023-04-12T18:02:57.171Z,99306.34
2023-04-12T18:05:25.676Z,99309.25
2023-04-12T18:07:53.496Z,99312.27
2023-04-12T18:10:23.358Z,99312.73
2023-04-12T18:12:51.434Z,99318.10
2023-04-12T18:15:20.041Z,99318.52
2023-04-12T18:17:47.988Z,99317.17
2023-04-12T18:20:16.581Z,99320.14
2023-04-12T18:22:45.945Z,99320.25
2023-04-12T18:25:14.102Z,99324.04
2023-04-12T18:27:42.552Z,99333.36
2023-04-12T18:30:10.682Z,99337.16
2023-04-12T18:32:38.747Z,99338.25
2023-04-12T18:35:07.736Z,99339.42
2023-04-12T18:37:37.095Z,99340.73
2023-04-12T18:40:08.933Z,99341.64
2023-04-12T18:42:36.982Z,99340.23
2023-04-12T18:45:05.663Z,99335.92
2023-04-12T18:47:33.775Z,99338.15
2023-04-12T18:50:01.748Z,99341.54
2023-04-12T18:52:29.823Z,99337.75
2023-04-12T18:54:57.794Z,99337.47
2023-04-12T18:57:25.712Z,99334.09
2023-04-12T18:59:54.006Z,99337.61
2023-04-12T19:02:22.554Z,99335.10
2023-04-12T19:04:50.664Z,99333.81
2023-04-12T19:07:19.145Z,99337.65
2023-04-12T19:09:47.286Z,99337.10
2023-04-12T19:12:15.621Z,99333.89
2023-04-12T19:14:43.420Z,99332.31
2023-04-12T19:17:11.651Z,99328.75
2023-04-12T19:19:39.433Z,99327.98
2023-04-12T19:22:07.499Z,99324.48
2023-04-12T19:24:36.264Z,99331.23
2023-04-12T19:27:04.525Z,99325.65
2023-04-12T19:29:32.615Z,99326.92
2023-04-12T19:32:02.443Z,99322.11
2023-04-12T19:34:30.719Z,99317.74
2023-04-12T19:36:59.330Z,99317.78
2023-04-12T19:39:27.420Z,99315.98
2023-04-12T19:41:56.473Z,99317.04
2023-04-12T19:44:26.177Z,99314.40
2023-04-12T19:46:54.115Z,99314.83
2023-04-12T19:49:23.142Z,99312.40
2023-04-12T19:51:51.298Z,99310.06
2023-04-12T19:54:23.614Z,99308.10
2023-04-12T19:56:54.133Z,99305.61
2023-04-12T19:59:24.132Z,99298.78
2023-04-12T20:01:52.392Z,99296.48
2023-04-12T20:04:21.937Z,99292.48
2023-04-12T20:06:52.381Z,99290.32
2023-04-12T20:09:24.098Z,99296.04
2023-04-12T20:11:52.629Z,99291.54
2023-04-12T20:14:20.764Z,99284.10
2023-04-12T20:16:50.121Z,99284.02
2023-04-12T20:19:18.269Z,99289.56
2023-04-12T20:21:47.598Z,99285.56
2023-04-12T20:24:15.569Z,99290.23
2023-04-12T20:26:46.692Z,99284.34
2023-04-12T20:29:15.066Z,99282.19
2023-04-12T20:31:43.775Z,99275.25
2023-04-12T20:34:12.043Z,99274.82
2023-04-12T20:36:41.391Z,99274.38
2023-04-12T20:39:10.582Z,99276.20
2023-04-12T20:41:39.261Z,99273.38
2023-04-12T20:44:07.149Z,99268.34
2023-04-12T20:46:37.214Z,99267.91
2023-04-12T20:49:06.874Z,99262.05
2023-04-12T20:51:34.771Z,99263.80
2023-04-12T20:54:03.336Z,99258.05
2023-04-12T20:56:32.314Z,99255.27
2023-04-12T20:59:00.831Z,99251.77
2023-04-12T21:01:29.306Z,99247.85
2023-04-12T21:03:59.652Z,99243.58
2023-04-12T21:06:28.470Z,99245.13
2023-04-12T21:08:56.595Z,99237.49
2023-04-12T21:11:27.553Z,99234.96
2023-04-12T21:13:55.531Z,99232.30
2023-04-12T21:16:25.729Z,99235.31
2023-04-12T21:18:54.791Z,99227.29
2023-04-12T21:21:22.647Z,99229.37
2023-04-12T21:23:52.013Z,99226.33
2023-04-12T21:26:20.800Z,99227.65
2023-04-12T21:28:48.802Z,99220.70
2023-04-12T21:31:17.551Z,99218.73
2023-04-12T21:33:45.723Z,99211.94
2023-04-12T21:36:14.499Z,99207.11
2023-04-12T21:38:42.638Z,99204.27
2023-04-12T21:41:11.601Z,99200.56
2023-04-12T21:43:40.194Z,99197.52
2023-04-12T21:46:08.401Z,99200.30
2023-04-12T21:48:36.923Z,99202.36
2023-04-12T21:51:05.180Z,99201.73
2023-04-12T21:53:33.382Z,99206.02
2023-04-12T21:56:01.684Z,99204.70
2023-04-12T21:58:30.268Z,99205.35
2023-04-12T22:00:58.472Z,99206.72
2023-04-12T22:03:29.586Z,99211.08
2023-04-12T22:06:04.235Z,99215.20
2023-04-12T22:08:33.481Z,99211.38
2023-04-12T22:11:01.663Z,99207.33
2023-04-12T22:13:30.968Z,99203.95
2023-04-12T22:16:00.882Z,99204.34
2023-04-12T22:18:29.154Z,99210.84
2023-04-12T22:20:58.011Z,99217.63
2023-04-12T22:23:26.220Z,99224.61
2023-04-12T22:25:58.502Z,99219.02
2023-04-12T22:28:27.115Z,99215.95
2023-04-12T22:30:57.262Z,99219.61
2023-04-12T22:33:25.279Z,99221.91
2023-04-12T22:35:53.360Z,99218.02
2023-04-12T22:38:21.412Z,99214.02
2023-04-12T22:40:49.666Z,99214.27
2023-04-12T22:43:21.074Z,99215.22
2023-04-12T22:45:49.195Z,99216.17
2023-04-12T22:48:17.002Z,99217.05
2023-04-12T22:50:45.443Z,99214.57
2023-04-12T22:53:14.251Z,99210.07
2023-04-12T22:55:42.588Z,99209.81
2023-04-12T22:58:10.313Z,99214.98
2023-04-12T23:00:39.558Z,99213.73
2023-04-12T23:03:11.333Z,99211.68
2023-04-12T23:05:44.698Z,99209.79
2023-04-12T23:08:18.226Z,99205.90
2023-04-12T23:10:46.347Z,99202.79
2023-04-12T23:13:14.100Z,99199.28
2023-04-12T23:15:45.743Z,99199.02
2023-04-12T23:18:13.596Z,99193.36
2023-04-12T23:20:44.943Z,99190.37
2023-04-12T23:23:13.880Z,99186.98
2023-04-12T23:25:42.880Z,99185.59
2023-04-12T23:28:15.899Z,99184.07
2023-04-12T23:30:51.348Z,99180.70
2023-04-12T23:33:21.376Z,99173.35
2023-04-12T23:35:52.819Z,99165.98
2023-04-12T23:38:32.621Z,99163.91
2023-04-12T23:41:02.525Z,99161.89
2023-04-12T23:43:32.682Z,99163.30
2023-04-12T23:46:03.358Z,99157.16
2023-04-12T23:48:32.531Z,99153.89
2023-04-12T23:51:00.553Z,99151.47
2023-04-12T23:53:28.339Z,99147.01
2023-04-12T23:55:56.751Z,99140.31
2023-04-12T23:58:26.227Z,99138.50
